Gazelle, California
Current Conditions -  °F | °C
As of 2:56 PM on Thursday 27 Nov 2014 (Local Time) from KMHS Reporting Station
Clear Clear  
Wind Chill: 54°   Ceiling: Unl
Heat Index: 54°   Visibility: 10mi
Dew Point: 30°   Wind: 6mph
Humidity: 40%   Direction: 130°SE
Pressure: 30.09"   Gusts: NA
Location:  41.52°N, 122.52°W
Report Text: KMHS 272256Z AUTO 13005KT 10SM CLR 12/M01 A3009 RMK AO2 SLP202 T01221011
Loading
Personal Weather Stations






























Interactive Weather Map New forecast layout! Learn more

10-Day Weather Forecast

Advertisements
Track Severe Weather on mobile